sensor_id;sensor_type;location;lat;lon;timestamp;temperature;humidity
73665;DHT22;61964;52.052;4.474;2022-07-15T00:02:23;16.24;66.62
73665;DHT22;61964;52.052;4.474;2022-07-15T00:04:49;16.25;67.32
73665;DHT22;61964;52.052;4.474;2022-07-15T00:07:14;16.15;66.42
73665;DHT22;61964;52.052;4.474;2022-07-15T00:09:40;16.11;67.19
73665;DHT22;61964;52.052;4.474;2022-07-15T00:12:25;16.04;68.07
73665;DHT22;61964;52.052;4.474;2022-07-15T00:14:50;15.97;67.52
73665;DHT22;61964;52.052;4.474;2022-07-15T00:17:16;15.86;67.86
73665;DHT22;61964;52.052;4.474;2022-07-15T00:19:42;15.81;69.06
73665;DHT22;61964;52.052;4.474;2022-07-15T00:22:09;15.80;68.36
73665;DHT22;61964;52.052;4.474;2022-07-15T00:24:35;15.77;68.54
73665;DHT22;61964;52.052;4.474;2022-07-15T00:27:01;15.80;68.47
73665;DHT22;61964;52.052;4.474;2022-07-15T00:29:29;15.77;69.41
73665;DHT22;61964;52.052;4.474;2022-07-15T00:31:55;15.76;70.16
73665;DHT22;61964;52.052;4.474;2022-07-15T00:34:21;15.71;70.10
73665;DHT22;61964;52.052;4.474;2022-07-15T00:36:47;15.66;70.03
73665;DHT22;61964;52.052;4.474;2022-07-15T00:39:14;15.63;70.42
73665;DHT22;61964;52.052;4.474;2022-07-15T00:41:41;15.63;70.13
73665;DHT22;61964;52.052;4.474;2022-07-15T00:44:08;15.57;70.39
73665;DHT22;61964;52.052;4.474;2022-07-15T00:46:35;15.51;70.89
73665;DHT22;61964;52.052;4.474;2022-07-15T00:49:07;15.49;71.33
73665;DHT22;61964;52.052;4.474;2022-07-15T00:51:40;15.44;71.44
73665;DHT22;61964;52.052;4.474;2022-07-15T00:54:10;15.42;71.18
73665;DHT22;61964;52.052;4.474;2022-07-15T00:56:40;15.36;71.93
73665;DHT22;61964;52.052;4.474;2022-07-15T00:59:07;15.33;72.05
73665;DHT22;61964;52.052;4.474;2022-07-15T01:01:34;15.32;71.33
73665;DHT22;61964;52.052;4.474;2022-07-15T01:04:04;15.30;71.52
73665;DHT22;61964;52.052;4.474;2022-07-15T01:06:30;15.25;72.49
73665;DHT22;61964;52.052;4.474;2022-07-15T01:08:56;15.20;72.12
73665;DHT22;61964;52.052;4.474;2022-07-15T01:11:22;15.12;71.85
73665;DHT22;61964;52.052;4.474;2022-07-15T01:13:49;15.11;72.60
73665;DHT22;61964;52.052;4.474;2022-07-15T01:16:15;15.06;72.08
73665;DHT22;61964;52.052;4.474;2022-07-15T01:18:40;15.03;72.69
73665;DHT22;61964;52.052;4.474;2022-07-15T01:21:06;14.99;73.21
73665;DHT22;61964;52.052;4.474;2022-07-15T01:23:32;15.03;72.21
73665;DHT22;61964;52.052;4.474;2022-07-15T01:25:58;15.01;72.37
73665;DHT22;61964;52.052;4.474;2022-07-15T01:28:24;15.02;73.00
73665;DHT22;61964;52.052;4.474;2022-07-15T01:30:50;14.98;72.87
73665;DHT22;61964;52.052;4.474;2022-07-15T01:33:16;14.96;72.07
73665;DHT22;61964;52.052;4.474;2022-07-15T01:35:42;14.96;72.65
73665;DHT22;61964;52.052;4.474;2022-07-15T01:38:08;14.95;72.64
73665;DHT22;61964;52.052;4.474;2022-07-15T01:40:34;14.89;72.32
73665;DHT22;61964;52.052;4.474;2022-07-15T01:43:00;14.85;72.76
73665;DHT22;61964;52.052;4.474;2022-07-15T01:45:26;14.81;72.30
73665;DHT22;61964;52.052;4.474;2022-07-15T01:47:51;14.72;72.90
73665;DHT22;61964;52.052;4.474;2022-07-15T01:50:20;14.71;73.03
73665;DHT22;61964;52.052;4.474;2022-07-15T01:52:46;14.65;72.60
73665;DHT22;61964;52.052;4.474;2022-07-15T01:55:12;14.64;73.26
73665;DHT22;61964;52.052;4.474;2022-07-15T01:57:38;14.57;72.90
73665;DHT22;61964;52.052;4.474;2022-07-15T02:00:06;14.47;73.55
73665;DHT22;61964;52.052;4.474;2022-07-15T02:02:33;14.44;74.01
73665;DHT22;61964;52.052;4.474;2022-07-15T02:04:59;14.38;73.66
73665;DHT22;61964;52.052;4.474;2022-07-15T02:07:24;14.34;73.28
73665;DHT22;61964;52.052;4.474;2022-07-15T02:09:50;14.30;74.33
73665;DHT22;61964;52.052;4.474;2022-07-15T02:12:16;14.27;74.38
73665;DHT22;61964;52.052;4.474;2022-07-15T02:14:41;14.26;74.23
73665;DHT22;61964;52.052;4.474;2022-07-15T02:17:07;14.20;74.33
73665;DHT22;61964;52.052;4.474;2022-07-15T02:19:33;14.17;74.27
73665;DHT22;61964;52.052;4.474;2022-07-15T02:21:59;14.10;74.38
73665;DHT22;61964;52.052;4.474;2022-07-15T02:24:24;14.06;74.96
73665;DHT22;61964;52.052;4.474;2022-07-15T02:26:50;14.00;74.82
